Time;durP1;ratioP1;P1;durP2;ratioP2;P2;SDS_P1;SDS_P2;PMS_P1;PMS_P2;Temp;Humidity;BMP_temperature;BMP_pressure;BME280_temperature;BME280_humidity;BME280_pressure;Samples;Min_cycle;Max_cycle;Signal;HPM_P1;HPM_P2
2024/04/06 00:00:41;;;;;;;3.13;1.80;;;;;;;19.36;57.61;101100.25;4964325;28;121539;-82
2024/04/06 00:03:09;;;;;;;5.60;1.70;;;;;;;19.34;57.79;101093.31;4949246;28;113303;-81
2024/04/06 00:05:35;;;;;;;3.15;1.80;;;;;;;19.32;57.63;101087.19;4963494;28;115178;-80
2024/04/06 00:08:01;;;;;;;3.38;1.75;;;;;;;19.31;57.75;101082.78;4960169;28;123917;-79
2024/04/06 00:10:27;;;;;;;3.78;1.67;;;;;;;19.31;57.59;101082.78;4931278;28;123243;-81
2024/04/06 00:12:53;;;;;;;2.90;1.50;;;;;;;19.30;57.63;101078.41;4940932;28;112232;-82
2024/04/06 00:15:20;;;;;;;3.20;1.77;;;;;;;19.28;57.79;101083.03;4944906;28;114695;-82
2024/04/06 00:17:46;;;;;;;3.13;1.60;;;;;;;19.23;57.69;101084.25;4951529;28;123290;-81
2024/04/06 00:20:12;;;;;;;3.40;1.75;;;;;;;19.21;57.66;101082.66;4962470;28;125130;-82
2024/04/06 00:22:38;;;;;;;2.95;1.92;;;;;;;19.17;57.66;101090.09;4966172;28;114842;-80
2024/04/06 00:25:05;;;;;;;2.88;1.77;;;;;;;19.13;57.70;101091.31;4945112;28;113494;-80
2024/04/06 00:27:32;;;;;;;3.50;1.73;;;;;;;19.10;57.77;101094.25;4959221;28;124474;-82
2024/04/06 00:29:59;;;;;;;4.30;1.90;;;;;;;19.09;57.93;101099.72;4953111;28;123573;-81
2024/04/06 00:32:25;;;;;;;3.17;1.77;;;;;;;19.07;57.76;101102.53;4961754;28;115862;-81
2024/04/06 00:34:51;;;;;;;2.45;1.40;;;;;;;19.05;57.83;101105.31;4961487;28;116215;-82
2024/04/06 00:37:17;;;;;;;5.35;1.90;;;;;;;19.02;58.00;101104.69;4963371;28;124254;-81
2024/04/06 00:39:44;;;;;;;4.75;1.63;;;;;;;18.99;57.73;101099.59;4953584;28;123449;-79
2024/04/06 00:42:10;;;;;;;3.17;1.50;;;;;;;18.96;57.74;101105.19;4948749;28;114441;-82
2024/04/06 00:44:36;;;;;;;3.75;1.85;;;;;;;18.94;58.03;101099.91;4948961;28;113978;-80
2024/04/06 00:47:03;;;;;;;3.05;1.67;;;;;;;18.91;58.00;101101.97;4946294;28;124095;-83
2024/04/06 00:49:30;;;;;;;4.40;1.75;;;;;;;18.88;57.95;101103.06;4952101;28;122876;-82
2024/04/06 00:51:56;;;;;;;3.50;1.80;;;;;;;18.84;58.08;101102.44;4957872;28;114060;-83
2024/04/06 00:54:23;;;;;;;3.72;1.90;;;;;;;18.82;57.88;101099.03;4949120;28;113606;-83
2024/04/06 00:56:50;;;;;;;3.17;1.55;;;;;;;18.79;58.10;101101.91;4945337;28;123933;-82
2024/04/06 00:59:17;;;;;;;3.13;1.52;;;;;;;18.75;57.97;101103.13;4956925;28;123674;-83
2024/04/06 01:01:44;;;;;;;3.63;1.77;;;;;;;18.73;58.12;101104.22;4928685;28;113114;-82
2024/04/06 01:04:10;;;;;;;6.65;1.70;;;;;;;18.68;58.01;101101.84;4934591;28;112816;-84
2024/04/06 01:06:37;;;;;;;4.47;1.80;;;;;;;18.65;58.16;101111.00;4973630;28;123868;-83
2024/04/06 01:09:03;;;;;;;3.17;1.80;;;;;;;18.62;58.05;101113.06;4955712;28;124544;-82
2024/04/06 01:11:29;;;;;;;3.75;1.58;;;;;;;18.58;58.16;101108.91;4952671;28;114446;-83
2024/04/06 01:13:55;;;;;;;5.18;1.75;;;;;;;18.56;58.16;101114.38;4951652;28;113714;-83
2024/04/06 01:16:21;;;;;;;4.55;1.67;;;;;;;18.54;58.47;101115.47;4946736;28;123088;-82
2024/04/06 01:18:47;;;;;;;3.80;1.52;;;;;;;18.51;58.44;101104.94;4962732;28;124190;-82
2024/04/06 01:21:13;;;;;;;4.25;1.92;;;;;;;18.47;58.36;101110.53;4935305;28;114308;-82
2024/04/06 01:23:43;;;;;;;2.70;1.65;;;;;;;18.45;58.71;101109.78;4947920;28;114805;-83
2024/04/06 01:26:09;;;;;;;2.85;1.83;;;;;;;18.43;58.48;101111.72;4952234;28;123966;-84
2024/04/06 01:28:35;;;;;;;2.47;1.60;;;;;;;18.41;58.76;101108.31;4924492;28;123153;-82
2024/04/06 01:31:01;;;;;;;4.13;1.80;;;;;;;18.41;58.75;101113.69;4939540;28;113504;-82
2024/04/06 01:33:27;;;;;;;4.65;2.10;;;;;;;18.38;58.65;101105.84;4933661;28;113236;-82
2024/04/06 01:35:54;;;;;;;4.32;1.88;;;;;;;18.37;58.82;101104.16;4944342;28;123611;-82
2024/04/06 01:38:20;;;;;;;3.33;1.98;;;;;;;18.35;58.78;101106.09;4961770;28;124251;-83
2024/04/06 01:40:46;;;;;;;3.25;1.80;;;;;;;18.35;58.84;101099.88;4961263;28;113728;-82
2024/04/06 01:43:12;;;;;;;5.32;2.25;;;;;;;18.33;58.66;101096.44;4942761;28;116474;-83
2024/04/06 01:45:38;;;;;;;3.08;1.73;;;;;;;18.30;59.06;101089.47;4933396;28;123094;-83
2024/04/06 01:48:05;;;;;;;3.33;1.83;;;;;;;18.26;58.89;101085.31;4948745;28;124300;-82
2024/04/06 01:50:31;;;;;;;3.90;1.80;;;;;;;18.23;59.03;101096.25;4957691;28;113427;-84
2024/04/06 01:52:57;;;;;;;6.18;2.05;;;;;;;18.21;59.17;101098.19;4942567;28;112946;-85
2024/04/06 01:55:23;;;;;;;3.30;1.80;;;;;;;18.20;59.21;101101.88;4958830;28;123161;-83
2024/04/06 01:57:49;;;;;;;2.58;2.08;;;;;;;18.18;59.30;101099.28;4951031;28;122864;-83
2024/04/06 02:00:16;;;;;;;4.30;2.40;;;;;;;18.18;59.18;101103.81;4928438;28;112772;-85
2024/04/06 02:02:42;;;;;;;3.65;2.20;;;;;;;18.17;59.10;101107.44;4930410;28;113867;-83
2024/04/06 02:05:08;;;;;;;3.17;1.70;;;;;;;18.15;59.33;101104.00;4951164;28;123000;-82
2024/04/06 02:07:34;;;;;;;3.80;3.00;;;;;;;18.12;59.47;101106.91;4955707;28;123947;-84
2024/04/06 02:10:01;;;;;;;3.80;2.00;;;;;;;18.09;59.28;101102.63;4953604;28;116074;-85
2024/04/06 02:12:27;;;;;;;4.50;2.33;;;;;;;18.08;59.50;101091.06;4950122;28;115584;-83
2024/04/06 02:14:53;;;;;;;4.32;2.20;;;;;;;18.05;59.53;101083.25;4947208;28;123070;-84
2024/04/06 02:17:19;;;;;;;3.70;2.10;;;;;;;18.04;59.45;101077.97;4945043;28;123200;-84
2024/04/06 02:19:45;;;;;;;4.93;2.53;;;;;;;18.00;59.52;101080.03;4957604;28;114431;-84
2024/04/06 02:22:12;;;;;;;4.53;2.40;;;;;;;17.96;59.58;101094.63;4929294;28;114966;-84
2024/04/06 02:24:38;;;;;;;3.63;2.40;;;;;;;17.94;59.70;101085.84;4948683;28;123698;-84
2024/04/06 02:27:04;;;;;;;4.78;2.50;;;;;;;17.92;59.65;101081.56;4950128;28;122806;-84
2024/04/06 02:29:31;;;;;;;2.95;2.22;;;;;;;17.91;59.76;101075.34;4948994;28;113520;-83
2024/04/06 02:31:58;;;;;;;3.67;2.40;;;;;;;17.90;59.73;101079.00;4933510;28;112575;-83
2024/04/06 02:34:24;;;;;;;3.75;2.45;;;;;;;17.87;60.03;101074.69;4949217;28;123995;-82
2024/04/06 02:36:50;;;;;;;6.78;2.65;;;;;;;17.88;59.95;101071.06;4945786;28;123494;-83
2024/04/06 02:39:17;;;;;;;5.38;2.53;;;;;;;17.88;60.09;101075.56;4960026;28;114231;-83
2024/04/06 02:41:43;;;;;;;4.95;2.90;;;;;;;17.87;60.07;101073.84;4950480;28;112893;-83
2024/04/06 02:44:10;;;;;;;6.20;2.60;;;;;;;17.88;60.07;101086.28;4945139;28;123979;-83
2024/04/06 02:46:36;;;;;;;4.72;3.03;;;;;;;17.89;60.12;101093.34;4946407;28;123631;-84
2024/04/06 02:49:02;;;;;;;4.22;2.70;;;;;;;17.89;60.04;101087.97;4946763;28;114000;-85
2024/04/06 02:51:28;;;;;;;6.18;3.40;;;;;;;17.89;60.07;101085.31;4958357;28;114311;-84
2024/04/06 02:53:54;;;;;;;4.70;2.78;;;;;;;17.90;60.07;101098.59;4959477;28;123561;-85
2024/04/06 02:56:21;;;;;;;5.22;2.85;;;;;;;17.89;60.13;101096.03;4947706;28;124149;-82
2024/04/06 02:58:47;;;;;;;4.25;2.60;;;;;;;17.90;60.08;101095.06;4956189;28;115600;-83
2024/04/06 03:01:13;;;;;;;6.35;3.30;;;;;;;17.89;60.20;101077.25;4925009;28;115230;-82
2024/04/06 03:03:39;;;;;;;5.57;2.95;;;;;;;17.88;60.07;101064.84;4955815;28;124222;-82
2024/04/06 03:06:06;;;;;;;4.53;3.20;;;;;;;17.86;60.19;101050.72;4945565;28;124052;-83
2024/04/06 03:08:33;;;;;;;6.47;2.80;;;;;;;17.84;59.99;101041.91;4947262;28;114347;-83
2024/04/06 03:11:00;;;;;;;4.30;2.50;;;;;;;17.82;59.92;101060.75;4957485;28;113115;-82
2024/04/06 03:13:26;;;;;;;5.28;2.85;;;;;;;17.80;60.06;101069.84;4954477;28;123952;-82
2024/04/06 03:15:52;;;;;;;5.32;2.90;;;;;;;17.77;59.88;101062.06;4960818;28;122720;-82
2024/04/06 03:18:18;;;;;;;5.10;2.63;;;;;;;17.75;60.05;101053.28;4958094;28;114168;-82
2024/04/06 03:20:44;;;;;;;3.83;2.80;;;;;;;17.73;59.98;101060.56;4950483;28;113306;-83
2024/04/06 03:23:10;;;;;;;4.97;2.78;;;;;;;17.71;59.98;101064.19;4961010;28;124659;-85
2024/04/06 03:25:37;;;;;;;8.02;2.97;;;;;;;17.69;59.91;101059.94;4977229;28;124282;-83
2024/04/06 03:28:03;;;;;;;3.78;2.67;;;;;;;17.66;59.81;101058.31;4972691;28;114372;-84
2024/04/06 03:30:29;;;;;;;6.28;2.80;;;;;;;17.64;59.96;101052.22;4942299;28;116658;-83
2024/04/06 03:32:56;;;;;;;5.40;2.90;;;;;;;17.59;60.03;101043.63;4947182;28;123847;-83
2024/04/06 03:35:22;;;;;;;4.53;2.97;;;;;;;17.54;59.98;101043.13;4951921;28;123195;-85
2024/04/06 03:37:49;;;;;;;5.40;2.70;;;;;;;17.49;60.00;101026.53;4951990;28;113845;-83
2024/04/06 03:40:16;;;;;;;5.28;3.10;;;;;;;17.44;60.08;101031.34;4964511;28;114029;-84
2024/04/06 03:42:52;;;;;;;4.35;3.00;;;;;;;17.40;60.02;101021.81;4961109;28;124749;-85
2024/04/06 03:45:18;;;;;;;4.07;2.63;;;;;;;17.34;60.10;101027.63;4936397;28;122326;-85
2024/04/06 03:47:44;;;;;;;6.38;3.38;;;;;;;17.29;60.31;101031.47;4951154;28;114328;-84
2024/04/06 03:50:11;;;;;;;7.65;2.70;;;;;;;17.25;60.21;101040.69;4956423;28;115067;-85
2024/04/06 03:52:37;;;;;;;5.78;2.90;;;;;;;17.21;60.14;101055.22;4945741;28;122759;-82
2024/04/06 03:55:03;;;;;;;5.72;3.10;;;;;;;17.17;60.24;101059.09;4949666;28;123668;-83
2024/04/06 03:57:29;;;;;;;6.63;3.40;;;;;;;17.14;60.20;101059.31;4932826;28;113392;-84
2024/04/06 03:59:56;;;;;;;10.25;3.70;;;;;;;17.11;60.47;101064.88;4939362;28;113503;-85
2024/04/06 04:02:22;;;;;;;5.63;3.33;;;;;;;17.08;60.45;101054.38;4934348;28;123152;-84
2024/04/06 04:04:48;;;;;;;4.65;3.25;;;;;;;17.06;60.54;101056.31;4947467;28;124119;-84
2024/04/06 04:07:14;;;;;;;6.82;3.28;;;;;;;17.03;60.48;101045.84;4953025;28;114599;-83
2024/04/06 04:09:40;;;;;;;6.32;3.90;;;;;;;17.00;60.84;101048.72;4947721;28;113395;-85
2024/04/06 04:12:07;;;;;;;7.00;3.40;;;;;;;16.96;60.70;101057.91;4936810;28;122883;-84
2024/04/06 04:14:33;;;;;;;6.40;4.20;;;;;;;16.91;60.86;101059.09;4952787;28;124509;-84
2024/04/06 04:16:59;;;;;;;7.03;4.03;;;;;;;16.88;61.10;101051.25;4949115;28;113596;-82
2024/04/06 04:19:25;;;;;;;6.25;4.07;;;;;;;16.86;61.11;101050.50;4968431;28;113212;-82
2024/04/06 04:21:51;;;;;;;7.20;4.30;;;;;;;16.85;61.46;101048.78;4954353;28;124256;-82
2024/04/06 04:24:18;;;;;;;7.82;4.35;;;;;;;16.83;61.19;101040.00;4950842;28;124031;-81
2024/04/06 04:26:45;;;;;;;9.77;4.18;;;;;;;16.82;61.58;101043.66;4940625;28;115867;-82
2024/04/06 04:29:11;;;;;;;7.47;4.13;;;;;;;16.81;61.59;101043.72;4949165;28;113054;-81
2024/04/06 04:31:37;;;;;;;5.25;3.67;;;;;;;16.79;61.65;101043.81;4941573;28;123348;-82
2024/04/06 04:34:03;;;;;;;5.70;3.47;;;;;;;16.80;61.80;101039.31;4959436;28;123715;-81
2024/04/06 04:36:29;;;;;;;10.48;3.90;;;;;;;16.81;61.72;101036.56;4951253;28;114241;-80
2024/04/06 04:38:55;;;;;;;6.18;3.60;;;;;;;16.79;61.90;101033.13;4948710;28;115040;-81
2024/04/06 04:41:22;;;;;;;7.10;3.78;;;;;;;16.79;62.01;101038.47;4942344;28;123961;-82
2024/04/06 04:43:48;;;;;;;6.32;3.30;;;;;;;16.80;61.88;101040.19;4952627;28;122959;-82
2024/04/06 04:46:14;;;;;;;5.88;3.33;;;;;;;16.80;61.66;101039.31;4947899;28;113577;-81
2024/04/06 04:48:56;;;;;;;8.90;3.60;;;;;;;16.78;61.84;101042.09;4953590;28;114651;-80
2024/04/06 04:51:23;;;;;;;4.00;3.13;;;;;;;16.79;61.94;101038.47;4961413;28;123935;-82
2024/04/06 04:53:50;;;;;;;6.30;3.25;;;;;;;16.80;61.90;101040.19;4941542;28;122494;-82
2024/04/06 04:56:17;;;;;;;8.13;3.30;;;;;;;16.81;61.82;101036.56;4949783;28;114088;-85
2024/04/06 04:58:43;;;;;;;7.28;3.80;;;;;;;16.82;61.78;101032.97;4968330;28;113621;-83
2024/04/06 05:01:10;;;;;;;6.82;3.60;;;;;;;16.83;61.98;101023.97;4962318;28;123075;-86
2024/04/06 05:03:36;;;;;;;6.38;3.10;;;;;;;16.83;61.92;101010.59;4946329;28;122062;-86
2024/04/06 05:06:03;;;;;;;5.82;3.10;;;;;;;16.85;61.97;101005.97;4952970;28;113674;-87
2024/04/06 05:08:29;;;;;;;4.85;2.92;;;;;;;16.84;62.02;101004.28;4934522;28;113489;-86
2024/04/06 05:10:55;;;;;;;4.70;3.08;;;;;;;16.85;62.01;101008.66;4954616;28;124304;-85
2024/04/06 05:13:22;;;;;;;4.43;2.30;;;;;;;16.86;61.85;101012.22;4960617;28;123393;-84
2024/04/06 05:15:50;;;;;;;3.85;2.60;;;;;;;16.87;61.77;100998.69;4933785;28;113427;-84
2024/04/06 05:18:16;;;;;;;3.72;2.08;;;;;;;16.87;61.64;100992.50;4942294;28;115466;-85
2024/04/06 05:20:50;;;;;;;4.05;2.25;;;;;;;16.88;61.66;100989.72;4951765;28;123119;-83
2024/04/06 05:23:17;;;;;;;4.30;2.20;;;;;;;16.90;61.81;100986.94;4949105;28;123408;-83
2024/04/06 05:25:46;;;;;;;6.60;2.20;;;;;;;16.89;61.61;100986.06;4935774;28;114510;-85
2024/04/06 05:28:15;;;;;;;3.85;2.08;;;;;;;16.91;61.40;100994.88;4924922;28;113893;-83
2024/04/06 05:30:46;;;;;;;4.60;2.30;;;;;;;16.91;61.48;101000.22;4942929;28;122508;-87
2024/04/06 05:33:14;;;;;;;2.75;1.90;;;;;;;16.92;61.59;101001.94;4955275;28;123410;-85
2024/04/06 05:35:41;;;;;;;3.70;2.20;;;;;;;16.92;61.56;101007.28;4968487;28;114279;-86
2024/04/06 05:38:07;;;;;;;3.78;2.20;;;;;;;16.93;61.47;101006.31;4928176;28;113560;-83
2024/04/06 05:40:43;;;;;;;3.20;1.88;;;;;;;16.95;61.46;101016.06;4948227;28;122854;-85
2024/04/06 05:43:10;;;;;;;4.45;2.40;;;;;;;16.97;61.31;101024.81;4954036;28;123609;-83
2024/04/06 05:45:37;;;;;;;2.63;2.13;;;;;;;16.97;61.37;101041.75;4970379;28;114078;-85
2024/04/06 05:48:04;;;;;;;4.10;2.00;;;;;;;16.98;61.21;101031.91;4945927;28;113878;-85
2024/04/06 05:50:32;;;;;;;4.10;2.10;;;;;;;16.99;61.35;101038.94;4959220;28;123134;-85
2024/04/06 05:52:58;;;;;;;5.75;1.90;;;;;;;17.01;61.45;101026.31;4948162;28;123545;-83
2024/04/06 05:55:25;;;;;;;5.75;2.10;;;;;;;17.01;61.22;100999.56;4947560;28;113740;-84
2024/04/06 05:57:51;;;;;;;5.40;1.95;;;;;;;17.02;61.23;100995.94;4949035;28;112394;-84
2024/04/06 06:00:18;;;;;;;4.40;2.15;;;;;;;17.04;61.31;100988.66;4938849;28;124078;-85
2024/04/06 06:02:45;;;;;;;5.40;2.17;;;;;;;17.05;61.31;101001.09;4939470;28;122774;-84
2024/04/06 06:05:12;;;;;;;5.78;1.90;;;;;;;17.07;61.41;101004.50;4935068;28;113688;-84
2024/04/06 06:07:39;;;;;;;3.70;2.20;;;;;;;17.09;61.34;101003.44;4971120;28;114152;-83
2024/04/06 06:10:07;;;;;;;2.53;2.08;;;;;;;17.13;61.22;100993.38;4943190;28;123660;-85
2024/04/06 06:12:36;;;;;;;3.15;2.05;;;;;;;17.17;61.33;101000.22;4960929;28;122746;-84
2024/04/06 06:15:03;;;;;;;2.65;1.92;;;;;;;17.23;61.44;100996.25;4947133;28;114837;-82
2024/04/06 06:17:29;;;;;;;4.30;1.95;;;;;;;17.26;61.35;100994.22;4929826;28;114579;-84
2024/04/06 06:19:55;;;;;;;5.55;2.15;;;;;;;17.32;61.33;100988.41;4941799;28;125723;-82
2024/04/06 06:22:22;;;;;;;3.15;2.00;;;;;;;17.39;61.39;100983.50;4943782;28;123596;-80
2024/04/06 06:24:48;;;;;;;3.42;2.20;;;;;;;17.45;61.04;100976.84;4949966;28;113578;-83
2024/04/06 06:27:15;;;;;;;4.68;1.88;;;;;;;17.52;61.16;100980.78;4939220;28;113388;-83
2024/04/06 06:29:41;;;;;;;3.05;1.85;;;;;;;17.60;61.18;100975.72;4940868;28;122303;-83
2024/04/06 06:32:08;;;;;;;3.47;1.63;;;;;;;17.68;61.07;100978.69;4930422;28;123429;-81
2024/04/06 06:34:34;;;;;;;3.05;1.75;;;;;;;17.77;61.24;100970.97;4942095;28;114471;-84
2024/04/06 06:37:00;;;;;;;3.85;2.00;;;;;;;17.87;61.06;100967.50;4957164;28;114756;-80
2024/04/06 06:39:26;;;;;;;2.88;1.80;;;;;;;17.99;61.12;100970.25;4955990;28;124134;-83
2024/04/06 06:41:52;;;;;;;3.88;1.77;;;;;;;18.09;61.09;100972.13;4946480;28;121949;-83
2024/04/06 06:44:19;;;;;;;3.97;2.00;;;;;;;18.20;60.93;100973.19;4925027;28;112339;-83
2024/04/06 06:46:45;;;;;;;3.80;2.15;;;;;;;18.33;60.88;100979.31;4944861;28;113095;-83
2024/04/06 06:49:12;;;;;;;3.55;1.73;;;;;;;18.45;60.32;100978.38;4948014;28;125333;-82
2024/04/06 06:51:38;;;;;;;3.20;1.65;;;;;;;18.56;60.50;100990.13;4944882;28;123162;-83
2024/04/06 06:54:05;;;;;;;3.10;1.67;;;;;;;18.71;60.81;100982.72;4941799;28;115809;-85
2024/04/06 06:56:31;;;;;;;3.35;1.85;;;;;;;18.84;60.35;100978.16;4946137;28;113110;-85
2024/04/06 06:58:58;;;;;;;4.75;2.10;;;;;;;18.99;60.16;100976.94;4923831;28;122410;-84
2024/04/06 07:01:25;;;;;;;4.72;2.20;;;;;;;19.15;60.04;100986.47;4943868;28;123920;-85
2024/04/06 07:03:52;;;;;;;4.82;2.50;;;;;;;19.30;59.58;100984.41;4962362;28;115378;-85
2024/04/06 07:06:18;;;;;;;5.10;2.08;;;;;;;19.43;59.37;100979.75;4943840;28;114264;-83
2024/04/06 07:08:44;;;;;;;3.60;2.03;;;;;;;19.54;59.08;100982.44;4940107;28;123536;-82
2024/04/06 07:11:11;;;;;;;4.13;2.35;;;;;;;19.70;59.05;100981.19;4943091;28;122870;-84
2024/04/06 07:13:38;;;;;;;5.18;2.40;;;;;;;19.82;58.81;100980.22;4943973;28;114126;-83
2024/04/06 07:16:09;;;;;;;2.90;1.80;;;;;;;19.94;58.51;100979.22;4947866;28;113795;-85
2024/04/06 07:18:37;;;;;;;5.30;2.15;;;;;;;20.10;58.24;100961.81;4945076;28;123444;-84
2024/04/06 07:21:04;;;;;;;3.55;1.77;;;;;;;20.22;57.85;100966.16;4974899;28;124028;-83
2024/04/06 07:23:31;;;;;;;3.42;1.77;;;;;;;20.34;57.72;100959.75;4931424;28;113040;-84
2024/04/06 07:25:57;;;;;;;4.00;2.03;;;;;;;20.47;57.83;100953.31;4936085;28;115202;-83
2024/04/06 07:28:23;;;;;;;3.53;2.00;;;;;;;20.59;57.51;100952.28;4933497;28;122560;-85
2024/04/06 07:30:49;;;;;;;3.45;1.70;;;;;;;20.70;57.34;100957.66;4944393;28;123675;-86
2024/04/06 07:33:15;;;;;;;5.32;1.70;;;;;;;20.83;57.22;100945.78;4943890;28;114546;-83
2024/04/06 07:35:42;;;;;;;3.95;1.75;;;;;;;20.93;57.03;100938.63;4956095;28;113451;-83
2024/04/06 07:38:08;;;;;;;2.05;1.33;;;;;;;21.06;56.85;100933.00;4933306;28;123282;-84
2024/04/06 07:40:34;;;;;;;3.97;1.85;;;;;;;21.14;56.39;100939.44;4969575;28;123476;-84
2024/04/06 07:43:00;;;;;;;4.43;1.60;;;;;;;21.24;56.30;100930.53;4943713;28;113912;-84
2024/04/06 07:45:27;;;;;;;1.75;1.13;;;;;;;21.34;56.14;100931.41;4930521;28;113093;-83
2024/04/06 07:47:53;;;;;;;3.53;1.42;;;;;;;21.43;56.12;100927.91;4960265;28;123910;-83
2024/04/06 07:50:19;;;;;;;3.53;1.70;;;;;;;21.53;56.09;100926.13;4940698;28;124108;-83
2024/04/06 07:52:45;;;;;;;4.55;1.60;;;;;;;21.65;55.92;100939.47;4961276;28;114230;-85
2024/04/06 07:55:12;;;;;;;2.13;1.50;;;;;;;21.75;55.67;100941.19;4961148;28;114752;-85
2024/04/06 07:57:38;;;;;;;2.75;1.70;;;;;;;21.85;55.42;100935.84;4952367;28;123906;-84
2024/04/06 08:00:05;;;;;;;3.00;1.70;;;;;;;21.91;55.22;100935.25;4947662;28;123782;-83
2024/04/06 08:02:31;;;;;;;7.38;1.65;;;;;;;21.97;54.86;100929.28;4945561;28;113231;-86
2024/04/06 08:04:58;;;;;;;3.25;1.52;;;;;;;22.04;54.73;100934.13;4960448;28;112290;-84
2024/04/06 08:07:25;;;;;;;5.10;1.90;;;;;;;22.11;54.50;100936.13;4948534;28;125872;-83
2024/04/06 08:09:57;;;;;;;3.28;1.80;;;;;;;22.17;54.52;100934.72;4952996;28;125403;-85
2024/04/06 08:12:24;;;;;;;2.80;1.50;;;;;;;22.25;54.35;100929.47;4952503;28;114183;-83
2024/04/06 08:14:51;;;;;;;3.25;1.50;;;;;;;22.33;54.18;100924.19;4934728;28;113191;-83
2024/04/06 08:17:17;;;;;;;7.80;1.52;;;;;;;22.41;53.96;100918.09;4949130;28;123166;-84
2024/04/06 08:19:43;;;;;;;6.43;1.60;;;;;;;22.48;53.92;100910.28;4960119;28;125239;-83
2024/04/06 08:22:09;;;;;;;3.50;1.65;;;;;;;22.58;53.80;100911.09;4959923;28;114670;-83
2024/04/06 08:24:45;;;;;;;2.67;1.40;;;;;;;22.68;53.38;100901.13;4953063;28;113575;-84
2024/04/06 08:27:14;;;;;;;4.22;1.77;;;;;;;22.77;53.16;100903.94;4944281;28;121443;-84
2024/04/06 08:29:40;;;;;;;3.63;1.55;;;;;;;22.84;53.24;100895.09;4960028;28;126312;-84
2024/04/06 08:32:07;;;;;;;4.22;1.67;;;;;;;22.96;53.05;100903.84;4946044;28;114073;-84
2024/04/06 08:34:33;;;;;;;3.08;1.40;;;;;;;23.05;52.92;100903.00;4932698;28;112913;-84
2024/04/06 08:36:59;;;;;;;3.35;1.45;;;;;;;23.16;52.53;100914.63;4932577;28;123830;-83
2024/04/06 08:39:27;;;;;;;3.78;1.95;;;;;;;23.26;52.36;100915.41;4932192;28;125101;-83
2024/04/06 08:41:56;;;;;;;3.03;1.55;;;;;;;23.33;52.15;100911.13;4944161;28;115896;-83
2024/04/06 08:44:41;;;;;;;6.18;1.73;;;;;;;23.39;52.07;100905.09;4928288;28;114248;-85
2024/04/06 08:47:11;;;;;;;3.13;1.75;;;;;;;23.46;51.94;100905.38;4946755;28;124934;-84
2024/04/06 08:49:38;;;;;;;2.63;1.60;;;;;;;23.55;51.83;100900.91;4934593;28;124849;-84
2024/04/06 08:52:05;;;;;;;3.22;1.52;;;;;;;23.63;51.63;100903.69;4950690;28;114306;-83
2024/04/06 08:54:32;;;;;;;2.78;1.30;;;;;;;23.71;51.44;100899.22;4937666;28;112025;-84
2024/04/06 08:57:04;;;;;;;3.78;1.60;;;;;;;23.80;51.03;100897.47;4939693;28;124190;-85
2024/04/06 08:59:34;;;;;;;4.28;1.50;;;;;;;23.94;51.01;100892.53;4927600;28;123547;-84
2024/04/06 09:02:01;;;;;;;2.45;1.30;;;;;;;24.05;50.58;100889.56;4929578;28;113484;-84
2024/04/06 09:04:27;;;;;;;3.80;1.52;;;;;;;24.14;50.69;100888.63;4936863;28;114216;-83
2024/04/06 09:06:54;;;;;;;2.33;1.30;;;;;;;24.24;50.13;100894.81;4964332;28;123676;-83
2024/04/06 09:09:20;;;;;;;3.38;1.40;;;;;;;24.33;50.14;100887.59;4969284;28;123730;-85
2024/04/06 09:11:47;;;;;;;2.72;1.48;;;;;;;24.44;49.89;100872.97;4943652;28;115013;-84
2024/04/06 09:14:13;;;;;;;2.78;1.38;;;;;;;24.51;49.49;100882.16;4936241;28;113230;-85
2024/04/06 09:16:40;;;;;;;2.90;1.60;;;;;;;24.59;49.08;100876.81;4949042;28;122306;-83
2024/04/06 09:19:06;;;;;;;2.97;1.40;;;;;;;24.66;49.15;100872.47;4943724;28;123511;-84
2024/04/06 09:21:33;;;;;;;2.15;1.33;;;;;;;24.74;48.81;100862.69;4934056;28;112882;-84
2024/04/06 09:24:01;;;;;;;3.13;1.30;;;;;;;24.80;48.63;100856.63;4962814;28;113364;-83
2024/04/06 09:26:31;;;;;;;2.38;1.30;;;;;;;24.82;48.40;100855.44;4937419;28;124003;-84
2024/04/06 09:29:01;;;;;;;3.50;1.50;;;;;;;24.83;48.25;100845.47;4952968;28;123799;-83
2024/04/06 09:31:28;;;;;;;3.88;1.30;;;;;;;24.82;48.01;100843.75;4953113;28;113668;-82
2024/04/06 09:33:57;;;;;;;4.95;1.70;;;;;;;24.83;47.70;100845.47;4962194;28;115308;-82
2024/04/06 09:36:23;;;;;;;5.47;1.75;;;;;;;24.86;48.05;100851.41;4965110;28;123209;-82
2024/04/06 09:38:52;;;;;;;2.80;1.50;;;;;;;24.92;48.04;100844.50;4937918;28;123492;-82
2024/04/06 09:41:20;;;;;;;1.88;1.27;;;;;;;24.97;47.90;100835.84;4944774;28;114061;-82
2024/04/06 09:43:49;;;;;;;3.30;1.50;;;;;;;25.04;47.70;100837.75;4940689;28;112399;-82
2024/04/06 09:46:18;;;;;;;2.85;1.30;;;;;;;25.12;47.65;100827.94;4930623;28;122940;-82
2024/04/06 09:48:45;;;;;;;3.20;1.60;;;;;;;25.19;47.50;100815.44;4946119;28;123822;-84
2024/04/06 09:51:12;;;;;;;2.35;1.40;;;;;;;25.21;47.29;100816.97;4938834;28;114353;-82
2024/04/06 09:53:40;;;;;;;3.15;1.45;;;;;;;25.22;46.58;100813.25;4956687;28;113151;-82
2024/04/06 09:56:08;;;;;;;3.15;1.45;;;;;;;25.21;46.45;100824.25;4943959;28;123899;-86
2024/04/06 09:58:34;;;;;;;2.95;1.17;;;;;;;25.22;46.78;100825.94;4944114;28;124931;-84
2024/04/06 10:01:09;;;;;;;1.95;1.42;;;;;;;25.28;46.92;100822.63;4948504;28;114620;-82
2024/04/06 10:03:35;;;;;;;2.00;1.13;;;;;;;25.37;46.82;100813.50;4963062;28;114135;-87
2024/04/06 10:06:29;;;;;;;2.20;1.20;;;;;;;25.49;46.55;100813.16;4926509;28;122987;-85
2024/04/06 10:09:00;;;;;;;4.05;1.38;;;;;;;25.65;46.92;100813.16;4979763;28;123572;-85
2024/04/06 10:11:29;;;;;;;3.03;1.30;;;;;;;25.79;46.87;100804.34;4964337;28;114422;-84
2024/04/06 10:14:05;;;;;;;2.30;1.23;;;;;;;25.93;46.58;100799.28;4968692;28;113871;-84
2024/04/06 10:16:35;;;;;;;2.50;1.40;;;;;;;26.03;46.32;100789.09;4980879;28;123914;-84
2024/04/06 10:19:02;;;;;;;3.30;1.30;;;;;;;26.10;45.99;100792.81;4939682;28;123547;-85
2024/04/06 10:21:38;;;;;;;4.57;1.30;;;;;;;26.14;46.10;100791.44;4938443;28;115117;-86
2024/04/06 10:24:10;;;;;;;2.88;1.13;;;;;;;26.22;45.44;100796.88;4943673;28;114588;-85
2024/04/06 10:26:54;;;;;;;2.05;1.20;;;;;;;26.27;45.69;100790.09;4956919;28;123692;-85
2024/04/06 10:29:20;;;;;;;2.10;1.30;;;;;;;26.32;45.09;100793.13;4942875;28;124281;-84
2024/04/06 10:31:46;;;;;;;1.77;1.35;;;;;;;26.34;44.93;100785.66;4955379;28;114147;-84
2024/04/06 10:34:16;;;;;;;3.15;1.20;;;;;;;26.37;44.66;100785.28;4955022;28;113349;-84
2024/04/06 10:36:43;;;;;;;1.88;1.20;;;;;;;26.39;44.22;100785.97;4946083;28;123596;-84
2024/04/06 10:39:09;;;;;;;3.58;1.20;;;;;;;26.42;44.38;100782.91;4947328;28;123420;-84
2024/04/06 10:41:37;;;;;;;2.28;1.30;;;;;;;26.46;43.96;100773.38;4947413;28;114233;-85
2024/04/06 10:44:03;;;;;;;3.65;1.30;;;;;;;26.51;43.75;100773.72;4946373;28;114481;-84
2024/04/06 10:46:30;;;;;;;3.45;1.30;;;;;;;26.54;43.55;100770.66;4944391;28;124560;-85
2024/04/06 10:48:56;;;;;;;3.88;1.38;;;;;;;26.54;43.49;100769.78;4959080;28;123539;-85
2024/04/06 10:51:22;;;;;;;2.67;1.50;;;;;;;26.56;42.86;100771.31;4934883;28;113752;-85
2024/04/06 10:53:49;;;;;;;2.13;1.20;;;;;;;26.55;42.89;100777.78;4946113;28;113526;-86
2024/04/06 10:56:15;;;;;;;2.80;1.10;;;;;;;26.56;42.59;100779.47;4959432;28;124066;-85
2024/04/06 10:58:41;;;;;;;1.83;1.02;;;;;;;26.60;42.57;100772.69;4931454;28;122631;-85
2024/04/06 11:01:15;;;;;;;2.22;1.00;;;;;;;26.65;42.41;100765.88;4956352;28;113154;-84
2024/04/06 11:03:41;;;;;;;2.15;1.15;;;;;;;26.71;42.17;100765.16;4964014;28;113964;-85
2024/04/06 11:06:08;;;;;;;2.53;1.20;;;;;;;26.77;42.20;100753.63;4951676;28;122202;-84
2024/04/06 11:08:34;;;;;;;2.65;1.00;;;;;;;26.86;42.36;100752.56;4948265;28;124249;-85
2024/04/06 11:11:00;;;;;;;3.55;1.27;;;;;;;26.92;41.79;100751.81;4960148;28;115095;-83
2024/04/06 11:13:27;;;;;;;2.35;1.20;;;;;;;26.98;41.56;100745.66;4961527;28;115188;-83
2024/04/06 11:15:53;;;;;;;2.08;1.10;;;;;;;27.08;41.75;100736.44;4947591;28;124331;-81